createdAt,value
2022-10-19T00:00:42.180Z,8.70
2022-10-19T00:03:08.799Z,7.40
2022-10-19T00:05:35.424Z,7.70
2022-10-19T00:08:02.700Z,10.10
2022-10-19T00:12:56.651Z,7.40
2022-10-19T00:15:23.351Z,6.40
2022-10-19T00:17:50.076Z,6.40
2022-10-19T00:20:16.767Z,6.20
2022-10-19T00:22:43.484Z,8.80
2022-10-19T00:25:10.132Z,6.80
2022-10-19T00:30:05.035Z,8.60
2022-10-19T00:37:26.393Z,7.70
2022-10-19T00:39:53.053Z,9.10
2022-10-19T00:42:19.681Z,9.40
2022-10-19T00:44:49.494Z,8.70
2022-10-19T00:47:18.679Z,7.10
2022-10-19T00:52:15.839Z,8.20
2022-10-19T00:54:44.067Z,6.90
2022-10-19T00:57:11.658Z,8.60
2022-10-19T00:59:39.977Z,6.20
2022-10-19T01:02:07.331Z,7.00
2022-10-19T01:04:37.584Z,8.00
2022-10-19T01:07:05.647Z,7.00
2022-10-19T01:09:32.254Z,7.00
2022-10-19T01:12:25.708Z,7.20
2022-10-19T01:15:22.809Z,6.10
2022-10-19T01:18:12.051Z,7.10
2022-10-19T01:23:21.075Z,5.70
2022-10-19T01:26:06.180Z,9.20
2022-10-19T01:31:14.642Z,6.90
2022-10-19T01:33:52.202Z,7.20
2022-10-19T01:36:47.896Z,6.00
2022-10-19T01:39:30.865Z,5.70
2022-10-19T01:42:09.974Z,9.50
2022-10-19T01:44:54.532Z,9.40
2022-10-19T01:47:51.820Z,5.20
2022-10-19T01:50:27.479Z,9.30
2022-10-19T01:52:56.602Z,5.90
2022-10-19T01:55:26.560Z,6.80
2022-10-19T01:58:08.397Z,8.10
2022-10-19T02:00:39.894Z,9.20
2022-10-19T02:03:08.881Z,6.90
2022-10-19T02:05:38.668Z,8.00
2022-10-19T02:08:11.950Z,6.80
2022-10-19T02:10:41.351Z,6.70
2022-10-19T02:13:08.217Z,5.90
2022-10-19T02:15:38.223Z,9.20
2022-10-19T02:20:35.339Z,6.20
2022-10-19T02:23:06.300Z,6.40
2022-10-19T02:25:34.265Z,5.00
2022-10-19T02:28:03.935Z,6.30
2022-10-19T02:30:30.688Z,6.40
2022-10-19T02:42:55.706Z,4.70
2022-10-19T02:45:36.043Z,6.80
2022-10-19T02:48:07.130Z,7.30
2022-10-19T02:53:00.942Z,6.10
2022-10-19T02:55:29.927Z,6.00
2022-10-19T03:02:51.416Z,8.70
2022-10-19T03:05:18.085Z,7.30
2022-10-19T03:10:11.837Z,6.00
2022-10-19T03:12:38.494Z,3.80
2022-10-19T03:15:05.600Z,7.60
2022-10-19T03:19:59.860Z,5.10
2022-10-19T03:29:47.854Z,4.80
2022-10-19T03:32:14.584Z,4.10
2022-10-19T03:39:35.468Z,6.80
2022-10-19T03:46:56.294Z,4.90
2022-10-19T03:54:17.678Z,4.40
2022-10-19T03:59:14.652Z,5.40
2022-10-19T04:01:44.407Z,5.60
2022-10-19T04:04:14.481Z,5.40
2022-10-19T04:06:43.243Z,5.20
2022-10-19T04:09:13.359Z,5.40
2022-10-19T04:21:28.929Z,5.50
2022-10-19T04:24:08.349Z,3.10
2022-10-19T04:26:39.568Z,4.10
2022-10-19T04:31:33.546Z,4.80
2022-10-19T04:34:00.200Z,3.50
2022-10-19T04:41:22.288Z,5.30
2022-10-19T04:43:54.006Z,5.20
2022-10-19T04:48:49.051Z,5.50
2022-10-19T04:53:44.137Z,4.40
2022-10-19T04:56:22.875Z,5.40
2022-10-19T04:58:49.845Z,5.10
2022-10-19T05:01:19.387Z,4.10
2022-10-19T05:03:46.835Z,3.40
2022-10-19T05:06:15.102Z,5.20
2022-10-19T05:11:16.834Z,6.90
2022-10-19T05:13:45.038Z,4.00
2022-10-19T05:16:14.247Z,5.40
2022-10-19T05:18:41.347Z,5.40
2022-10-19T05:21:10.839Z,5.50
2022-10-19T05:26:09.963Z,4.00
2022-10-19T05:28:37.402Z,7.70
2022-10-19T05:31:13.736Z,4.70
2022-10-19T05:33:41.527Z,3.40
2022-10-19T05:36:36.963Z,5.00
2022-10-19T05:39:17.846Z,7.40
2022-10-19T05:41:46.308Z,5.30
2022-10-19T05:44:18.484Z,5.10
2022-10-19T05:46:45.340Z,2.90
2022-10-19T05:49:13.992Z,3.20
2022-10-19T05:54:08.304Z,5.00
2022-10-19T05:59:05.391Z,5.10
2022-10-19T06:01:32.927Z,5.10
2022-10-19T06:06:28.438Z,4.90
2022-10-19T06:08:56.805Z,4.90
2022-10-19T06:11:27.172Z,5.00
2022-10-19T06:13:55.638Z,5.00
2022-10-19T06:16:24.107Z,5.30
2022-10-19T06:18:52.017Z,7.60
2022-10-19T06:21:21.315Z,5.00
2022-10-19T06:23:52.444Z,7.50
2022-10-19T06:26:19.174Z,6.50
2022-10-19T06:28:46.063Z,6.00
2022-10-19T06:31:14.657Z,5.30
2022-10-19T06:33:44.244Z,6.50
2022-10-19T06:36:14.157Z,5.30
2022-10-19T06:38:41.552Z,7.50
2022-10-19T06:41:09.568Z,7.90
2022-10-19T06:43:36.718Z,4.00
2022-10-19T06:46:08.488Z,5.60
2022-10-19T06:48:35.165Z,3.50
2022-10-19T06:51:06.293Z,3.40
2022-10-19T06:53:34.352Z,4.10
2022-10-19T06:56:03.020Z,5.00
2022-10-19T07:00:59.127Z,5.80
2022-10-19T07:03:27.464Z,3.50
2022-10-19T07:06:00.715Z,3.80
2022-10-19T07:08:29.840Z,4.30
2022-10-19T07:10:59.732Z,6.60
2022-10-19T07:13:27.593Z,7.20
2022-10-19T07:16:05.437Z,6.20
2022-10-19T07:18:33.620Z,5.50
2022-10-19T07:21:03.385Z,6.30
2022-10-19T07:23:31.729Z,6.50
2022-10-19T07:26:03.699Z,4.50
2022-10-19T07:30:57.612Z,6.40
2022-10-19T07:38:18.468Z,5.20
2022-10-19T07:43:14.341Z,5.40
2022-10-19T07:50:35.116Z,10.00
2022-10-19T07:53:05.113Z,8.60
2022-10-19T07:55:34.442Z,10.20
2022-10-19T07:58:01.912Z,10.40
2022-10-19T08:05:43.450Z,10.50
2022-10-19T08:08:10.187Z,10.80
2022-10-19T08:10:36.883Z,10.10
2022-10-19T08:17:57.828Z,8.20
2022-10-19T08:20:24.456Z,11.00
2022-10-19T08:25:25.692Z,7.00
2022-10-19T08:27:52.572Z,7.30
2022-10-19T08:30:19.419Z,7.40
2022-10-19T08:32:46.219Z,10.00
2022-10-19T08:37:44.695Z,11.00
2022-10-19T08:40:23.319Z,8.00
2022-10-19T08:43:35.808Z,9.20
2022-10-19T08:46:47.992Z,9.40
2022-10-19T08:49:20.235Z,10.60
2022-10-19T08:51:51.523Z,9.50
2022-10-19T08:54:18.469Z,11.80
2022-10-19T08:56:54.855Z,12.00
2022-10-19T08:59:46.762Z,8.00
2022-10-19T09:02:45.920Z,12.20
2022-10-19T09:05:29.672Z,11.40
2022-10-19T09:07:57.007Z,8.30
2022-10-19T09:10:25.464Z,10.10
2022-10-19T09:13:20.290Z,8.50
2022-10-19T09:15:52.416Z,8.50
2022-10-19T09:18:27.848Z,8.40
2022-10-19T09:21:33.363Z,12.80
2022-10-19T09:24:26.547Z,8.30
2022-10-19T09:26:57.003Z,10.50
2022-10-19T09:29:41.242Z,10.30
2022-10-19T09:32:19.549Z,9.20
2022-10-19T09:34:53.026Z,9.00
2022-10-19T09:37:26.102Z,12.00
2022-10-19T09:39:55.661Z,10.90
2022-10-19T09:42:24.412Z,9.80
2022-10-19T09:44:52.459Z,13.50
2022-10-19T09:47:39.786Z,9.80
2022-10-19T09:50:26.345Z,10.40
2022-10-19T09:53:03.639Z,9.60
2022-10-19T09:55:43.174Z,12.90
2022-10-19T09:58:17.529Z,13.90
2022-10-19T10:00:54.849Z,11.20
2022-10-19T10:03:32.338Z,13.40
2022-10-19T10:06:04.265Z,13.00
2022-10-19T10:08:35.496Z,11.30
2022-10-19T10:11:12.850Z,13.90
2022-10-19T10:13:50.505Z,14.20
2022-10-19T10:16:20.783Z,11.40
2022-10-19T10:19:06.824Z,13.60
2022-10-19T10:21:46.937Z,12.10
2022-10-19T10:24:13.567Z,11.20
2022-10-19T10:26:46.397Z,10.70
2022-10-19T10:29:32.391Z,12.20
2022-10-19T10:32:06.742Z,12.50
2022-10-19T10:35:00.147Z,14.20
2022-10-19T10:37:23.535Z,12.30
2022-10-19T10:39:57.840Z,11.30
2022-10-19T10:42:43.116Z,12.70
2022-10-19T10:45:18.421Z,12.90
2022-10-19T10:47:48.247Z,11.60
2022-10-19T10:50:31.595Z,14.70
2022-10-19T10:53:07.006Z,13.90
2022-10-19T10:55:34.376Z,13.00
2022-10-19T10:58:16.433Z,12.90
2022-10-19T11:00:44.440Z,12.10
2022-10-19T11:03:23.722Z,14.50
2022-10-19T11:05:57.990Z,14.80
2022-10-19T11:08:38.618Z,13.20
2022-10-19T11:11:18.679Z,13.10
2022-10-19T11:14:01.591Z,11.70
2022-10-19T11:16:40.014Z,13.20
2022-10-19T11:19:25.628Z,12.00
2022-10-19T11:22:03.701Z,11.30
2022-10-19T11:25:04.244Z,13.10
2022-10-19T11:27:43.293Z,15.40
2022-10-19T11:30:15.097Z,13.30
2022-10-19T11:33:05.836Z,13.20
2022-10-19T11:38:18.865Z,13.80
2022-10-19T11:41:24.384Z,12.00
2022-10-19T11:44:01.089Z,12.20
2022-10-19T11:47:03.564Z,15.60
2022-10-19T11:49:37.348Z,13.40
2022-10-19T11:52:24.206Z,13.20
2022-10-19T11:55:05.582Z,11.90
2022-10-19T11:57:57.485Z,12.10
2022-10-19T12:00:40.081Z,11.40
2022-10-19T12:03:31.340Z,11.80
2022-10-19T12:06:29.463Z,13.30
2022-10-19T12:09:23.357Z,13.20
2022-10-19T12:11:56.054Z,14.50
2022-10-19T12:14:26.774Z,11.90
2022-10-19T12:16:58.026Z,12.00
2022-10-19T12:19:39.048Z,13.40
2022-10-19T12:22:10.070Z,12.90
2022-10-19T12:24:36.791Z,13.40
2022-10-19T12:27:04.676Z,13.60
2022-10-19T12:29:39.452Z,11.90
2022-10-19T12:32:07.230Z,13.70
2022-10-19T12:34:43.164Z,13.80
2022-10-19T12:37:23.572Z,13.30
2022-10-19T12:40:23.286Z,15.80
2022-10-19T12:42:59.174Z,14.10
2022-10-19T12:45:36.364Z,14.20
2022-10-19T12:48:09.033Z,15.10
2022-10-19T12:50:51.438Z,17.80
2022-10-19T12:56:15.286Z,17.90
2022-10-19T12:58:46.581Z,19.50
2022-10-19T13:01:33.506Z,21.50
2022-10-19T13:04:20.956Z,22.10
2022-10-19T13:06:50.781Z,23.50
2022-10-19T13:09:23.567Z,24.50
2022-10-19T13:12:19.369Z,25.40
2022-10-19T13:15:05.172Z,26.30
2022-10-19T13:17:34.936Z,27.00
2022-10-19T13:20:13.886Z,27.70
2022-10-19T13:22:59.320Z,28.50
2022-10-19T13:25:28.371Z,28.10
2022-10-19T13:28:12.633Z,29.60
2022-10-19T13:30:39.308Z,29.80
2022-10-19T13:33:27.812Z,30.10
2022-10-19T13:36:00.659Z,30.20
2022-10-19T13:38:44.305Z,29.80
2022-10-19T13:41:25.749Z,28.50
2022-10-19T13:44:08.594Z,26.80
2022-10-19T13:46:48.677Z,24.90
2022-10-19T13:49:39.440Z,22.90
2022-10-19T13:52:14.921Z,21.70
2022-10-19T13:55:00.608Z,20.50
2022-10-19T13:58:02.912Z,19.50
2022-10-19T14:01:12.384Z,19.00
2022-10-19T14:04:12.920Z,18.30
2022-10-19T14:07:01.283Z,17.90
2022-10-19T14:09:47.104Z,17.70
2022-10-19T14:12:35.052Z,17.60
2022-10-19T14:15:22.381Z,17.10
2022-10-19T14:17:49.399Z,17.10
2022-10-19T14:20:35.262Z,17.20
2022-10-19T14:23:30.964Z,17.00
2022-10-19T14:26:00.971Z,17.00
2022-10-19T14:28:28.531Z,17.10
2022-10-19T14:30:59.354Z,17.40
2022-10-19T14:33:28.277Z,18.80
2022-10-19T14:35:55.597Z,17.60
2022-10-19T14:38:35.118Z,18.50
2022-10-19T14:41:03.190Z,19.70
2022-10-19T14:43:34.562Z,20.30
2022-10-19T14:46:06.645Z,20.20
2022-10-19T14:48:35.235Z,19.90
2022-10-19T14:51:04.222Z,19.60
2022-10-19T14:53:42.265Z,19.30
2022-10-19T14:56:14.172Z,19.70
2022-10-19T14:59:11.914Z,20.60
2022-10-19T15:01:38.659Z,20.80
2022-10-19T15:04:05.415Z,20.90
2022-10-19T15:06:35.954Z,21.40
2022-10-19T15:09:12.036Z,22.40
2022-10-19T15:11:47.322Z,22.50
2022-10-19T15:14:32.597Z,22.50
2022-10-19T15:17:01.586Z,22.10
2022-10-19T15:19:37.520Z,22.50
2022-10-19T15:22:32.456Z,22.60
2022-10-19T15:25:07.016Z,24.60
2022-10-19T15:27:39.267Z,25.70
2022-10-19T15:30:28.027Z,26.20
2022-10-19T15:33:12.939Z,25.80
2022-10-19T15:35:42.240Z,24.40
2022-10-19T15:38:20.446Z,23.30
2022-10-19T15:40:48.274Z,21.60
2022-10-19T15:43:37.986Z,20.20
2022-10-19T15:46:13.664Z,19.10
2022-10-19T15:48:40.407Z,18.40
2022-10-19T15:51:27.339Z,17.80
2022-10-19T15:53:56.024Z,17.10
2022-10-19T15:56:24.456Z,16.70
2022-10-19T15:58:53.052Z,16.40
2022-10-19T16:01:22.642Z,16.60
2022-10-19T16:03:49.683Z,15.90
2022-10-19T16:06:18.134Z,15.40
2022-10-19T16:08:48.071Z,14.90
2022-10-19T16:11:19.772Z,15.20
2022-10-19T16:13:46.478Z,16.30
2022-10-19T16:16:24.077Z,14.80
2022-10-19T16:21:19.995Z,14.10
2022-10-19T16:23:46.912Z,15.60
2022-10-19T16:26:17.480Z,13.40
2022-10-19T16:28:44.560Z,12.10
2022-10-19T16:31:11.569Z,13.70
2022-10-19T16:33:38.277Z,13.00
2022-10-19T16:36:06.450Z,12.80
2022-10-19T16:38:33.779Z,13.60
2022-10-19T16:41:02.563Z,12.60
2022-10-19T16:43:30.106Z,13.80
2022-10-19T16:45:57.278Z,13.40
2022-10-19T16:48:24.431Z,12.60
2022-10-19T16:51:12.265Z,12.90
2022-10-19T16:53:38.999Z,12.50
2022-10-19T16:56:11.132Z,12.40
2022-10-19T16:58:38.600Z,14.80
2022-10-19T17:01:09.210Z,12.30
2022-10-19T17:03:36.305Z,12.20
2022-10-19T17:06:04.681Z,12.50
2022-10-19T17:08:36.911Z,12.00
2022-10-19T17:11:21.921Z,12.80
2022-10-19T17:13:50.794Z,13.10
2022-10-19T17:16:19.499Z,11.90
2022-10-19T17:18:46.843Z,13.20
2022-10-19T17:21:17.092Z,12.20
2022-10-19T17:26:11.600Z,12.00
2022-10-19T17:28:39.800Z,13.30
2022-10-19T17:31:09.492Z,12.60
2022-10-19T17:33:37.179Z,11.70
2022-10-19T17:36:15.183Z,12.40
2022-10-19T17:38:42.286Z,12.40
2022-10-19T17:41:15.843Z,15.50
2022-10-19T17:43:45.404Z,11.60
2022-10-19T17:46:14.413Z,12.10
2022-10-19T17:48:42.047Z,11.40
2022-10-19T17:51:15.786Z,12.30
2022-10-19T17:53:47.064Z,11.50
2022-10-19T17:56:16.169Z,13.20
2022-10-19T17:58:43.277Z,10.90
2022-10-19T18:01:11.448Z,11.10
2022-10-19T18:03:39.033Z,14.10
2022-10-19T18:06:11.651Z,11.30
2022-10-19T18:08:40.612Z,11.20
2022-10-19T18:11:10.950Z,11.40
2022-10-19T18:13:38.803Z,12.30
2022-10-19T18:16:08.907Z,11.00
2022-10-19T18:18:38.232Z,13.70
2022-10-19T18:21:06.941Z,11.30
2022-10-19T18:23:34.227Z,13.50
2022-10-19T18:26:07.166Z,13.20
2022-10-19T18:28:34.242Z,12.40
2022-10-19T18:31:11.864Z,11.30
2022-10-19T18:33:38.693Z,10.80
2022-10-19T18:36:07.356Z,10.80
2022-10-19T18:38:34.081Z,11.10
2022-10-19T18:41:06.187Z,11.30
2022-10-19T18:43:33.468Z,11.80
2022-10-19T18:46:00.817Z,11.50
2022-10-19T18:48:29.509Z,10.60
2022-10-19T18:50:57.075Z,10.90
2022-10-19T18:53:24.544Z,12.60
2022-10-19T18:56:02.482Z,11.60
2022-10-19T18:58:32.217Z,12.50
2022-10-19T19:01:24.084Z,11.30
2022-10-19T19:03:52.986Z,11.40
2022-10-19T19:06:24.565Z,10.10
2022-10-19T19:08:54.153Z,11.10
2022-10-19T19:11:26.604Z,10.90
2022-10-19T19:13:55.476Z,13.00
2022-10-19T19:16:23.444Z,11.00
2022-10-19T19:18:50.576Z,10.20
2022-10-19T19:21:28.478Z,10.40
2022-10-19T19:23:57.711Z,10.20
2022-10-19T19:26:27.697Z,10.20
2022-10-19T19:28:54.449Z,10.70
2022-10-19T19:31:21.374Z,11.10
2022-10-19T19:33:48.555Z,10.10
2022-10-19T19:36:16.909Z,10.70
2022-10-19T19:38:44.722Z,13.00
2022-10-19T19:41:13.647Z,10.40
2022-10-19T19:43:40.794Z,9.80
2022-10-19T19:46:12.522Z,9.50
2022-10-19T19:48:41.068Z,10.80
2022-10-19T19:51:13.144Z,10.90
2022-10-19T19:53:40.481Z,10.00
2022-10-19T19:56:09.296Z,9.90
2022-10-19T19:58:36.387Z,9.40
2022-10-19T20:01:19.426Z,10.60
2022-10-19T20:03:47.236Z,9.50
2022-10-19T20:06:20.834Z,12.70
2022-10-19T20:11:17.564Z,12.60
2022-10-19T20:13:45.604Z,10.10
2022-10-19T20:16:26.625Z,9.30
2022-10-19T20:19:00.800Z,11.70
2022-10-19T20:21:27.652Z,11.70
2022-10-19T20:26:22.628Z,10.40
2022-10-19T20:28:49.906Z,12.70
2022-10-19T20:31:16.883Z,9.20
2022-10-19T20:33:44.492Z,10.30
2022-10-19T20:36:17.523Z,8.70
2022-10-19T20:38:52.796Z,9.10
2022-10-19T20:41:21.019Z,10.20
2022-10-19T20:43:47.827Z,9.20
2022-10-19T20:46:23.571Z,9.10
2022-10-19T20:48:51.231Z,9.50
2022-10-19T20:51:21.121Z,9.00
2022-10-19T20:53:50.032Z,8.90
2022-10-19T20:56:19.158Z,8.70
2022-10-19T20:58:46.991Z,8.90
2022-10-19T21:01:18.778Z,9.20
2022-10-19T21:03:53.950Z,9.90
2022-10-19T21:06:22.729Z,9.30
2022-10-19T21:08:50.077Z,9.00
2022-10-19T21:13:44.298Z,8.90
2022-10-19T21:16:16.469Z,8.50
2022-10-19T21:18:44.713Z,8.60
2022-10-19T21:21:33.818Z,12.20
2022-10-19T21:24:04.718Z,9.90
2022-10-19T21:26:33.059Z,9.40
2022-10-19T21:31:27.936Z,11.50
2022-10-19T21:36:24.987Z,10.20
2022-10-19T21:38:51.923Z,8.50
2022-10-19T21:41:25.408Z,8.50
2022-10-19T21:43:53.530Z,8.70
2022-10-19T21:46:21.929Z,8.40
2022-10-19T21:51:43.173Z,9.50
2022-10-19T21:54:16.253Z,8.60
2022-10-19T21:59:12.020Z,11.40
2022-10-19T22:01:41.169Z,8.60
2022-10-19T22:04:16.253Z,8.50
2022-10-19T22:06:43.773Z,10.90
2022-10-19T22:09:13.929Z,8.40
2022-10-19T22:11:40.655Z,8.90
2022-10-19T22:16:36.575Z,9.10
2022-10-19T22:19:05.312Z,9.40
2022-10-19T22:21:33.415Z,8.10
2022-10-19T22:24:02.581Z,8.60
2022-10-19T22:26:35.481Z,10.90
2022-10-19T22:29:03.340Z,9.60
2022-10-19T22:31:31.334Z,8.60
2022-10-19T22:34:00.731Z,10.00
2022-10-19T22:38:55.087Z,9.40
2022-10-19T22:41:59.546Z,9.10
2022-10-19T22:44:29.120Z,7.60
2022-10-19T22:51:50.644Z,7.70
2022-10-19T22:54:17.408Z,7.60
2022-10-19T22:56:44.048Z,10.30
2022-10-19T22:59:10.760Z,8.10
2022-10-19T23:01:38.016Z,10.50
2022-10-19T23:06:31.762Z,9.00
2022-10-19T23:08:58.473Z,7.70
2022-10-19T23:11:25.176Z,7.60
2022-10-19T23:16:19.066Z,7.60
2022-10-19T23:21:14.116Z,8.50
2022-10-19T23:23:41.636Z,8.90
2022-10-19T23:26:13.868Z,8.00
2022-10-19T23:28:42.572Z,11.20
2022-10-19T23:31:16.674Z,7.50
2022-10-19T23:33:43.712Z,8.00
2022-10-19T23:36:16.599Z,8.90
2022-10-19T23:38:44.950Z,9.30
2022-10-19T23:41:12.620Z,7.90
2022-10-19T23:46:07.583Z,7.80
2022-10-19T23:48:35.118Z,8.10
2022-10-19T23:51:11.016Z,10.20
2022-10-19T23:53:41.438Z,7.90
2022-10-19T23:56:11.758Z,8.70
